This is the latest recevied weather packets stored in our database for station/object 9W2YIE-13. If no packets are shown the sender has not sent any weather packets the latest 10 day(s).
| Time | Temp. | Humidity | Pressure | Rain* | Wind** | Luminosity | Snow |
|---|---|---|---|---|---|---|---|
| 1787634393 | 42.78° C | 36% | 1008 hPa | - | - | 0 W/m² | - |
| 1787633466 | 43.89° C | 35% | 1008 hPa | - | - | 0 W/m² | - |
| 1787632539 | 44.44° C | 34% | 1008 hPa | - | - | 0 W/m² | - |
| 1787631608 | 45° C | 34% | 1009 hPa | - | - | 0 W/m² | - |
| 1787630674 | 42.78° C | 38% | 1009 hPa | - | - | 0 W/m² | - |
| 1787629720 | 43.89° C | 36% | 1009 hPa | - | - | 0 W/m² | - |
| 1787628744 | 43.89° C | 36% | 1009 hPa | - | - | 0 W/m² | - |
| 1787627784 | 42.78° C | 38% | 1009 hPa | - | - | 0 W/m² | - |
| 1787626824 | 41.11° C | 41% | 1009 hPa | - | - | 0 W/m² | - |
| 1787625889 | 41.11° C | 39% | 1009 hPa | - | - | 0 W/m² | - |
| 1787624943 | 41.67° C | 39% | 1009 hPa | - | - | 0 W/m² | - |
| 1787624002 | 41.67° C | 39% | 1009 hPa | - | - | 0 W/m² | - |
| 1787623069 | 40.56° C | 41% | 1009 hPa | - | - | 0 W/m² | - |
| 1787622134 | 41.11° C | 39% | 1009 hPa | - | - | 0 W/m² | - |
| 1787621206 | 41.11° C | 40% | 1009 hPa | - | - | 0 W/m² | - |
| 1787620255 | 39.44° C | 42% | 1009 hPa | - | - | 0 W/m² | - |
| 1787619309 | 40.56° C | 40% | 1008 hPa | - | - | 0 W/m² | - |
| 1787618340 | 40° C | 41% | 1008 hPa | - | - | 0 W/m² | - |
| 1787617355 | 39.44° C | 41% | 1008 hPa | - | - | 0 W/m² | - |
| 1787616201 | 40.56° C | 39% | 1008 hPa | - | - | 0 W/m² | - |
| 1787615186 | 41.11° C | 39% | 1007 hPa | - | - | 0 W/m² | - |
| 1787614228 | 40° C | 40% | 1007 hPa | - | - | 0 W/m² | - |
| 1787613298 | 40° C | 40% | 1007 hPa | - | - | 0 W/m² | - |
| 1787612372 | 40.56° C | 39% | 1007 hPa | - | - | 0 W/m² | - |
| 1787611875 | 40.56° C | 39% | 1007 hPa | - | - | 0 W/m² | - |
* Rain since midnight (hover to see other rain measurements)
** Current wind speed in m/s (hover to see current wind gust speed)